Terminal Aerodrome Forecast
Issued by NWS Jacksonville, FL

Home | Current Version | Previous Version | Text Only | Print | Product List | Glossary On
Versions: 1 2 3 4 5 6 7 8 9 10 11 12 13 14 15 16 17 18 19 20 21
935
FTUS42 KJAX 122323
TAFGNV
TAF
KGNV 122323Z 1300/1324 25015G25KT P6SM SKC
     FM130100 26010KT P6SM SKC
     FM130700 30007KT P6SM SKC
     FM131500 35011G18KT P6SM SKC=

USA.gov is the U.S. government's official web portal to all federal, state and local government web resources and services.